createdAt,value
2019-05-30T00:00:50.593Z,10.21
2019-05-30T00:03:23.190Z,9.66
2019-05-30T00:05:56.304Z,9.24
2019-05-30T00:08:29.147Z,8.91
2019-05-30T00:11:03.264Z,8.60
2019-05-30T00:13:35.988Z,8.37
2019-05-30T00:16:08.729Z,8.13
2019-05-30T00:18:41.407Z,7.90
2019-05-30T00:21:14.087Z,7.70
2019-05-30T00:23:46.654Z,7.51
2019-05-30T00:26:19.338Z,7.32
2019-05-30T00:28:53.443Z,7.15
2019-05-30T00:31:26.124Z,6.98
2019-05-30T00:33:59.552Z,6.83
2019-05-30T00:36:32.407Z,8.47
2019-05-30T00:39:06.575Z,11.92
2019-05-30T00:41:39.505Z,12.17
2019-05-30T00:44:12.184Z,10.95
2019-05-30T00:46:44.866Z,10.08
2019-05-30T00:49:17.442Z,9.46
2019-05-30T00:51:50.126Z,9.06
2019-05-30T00:54:22.695Z,8.65
2019-05-30T00:56:56.510Z,8.37
2019-05-30T00:59:29.290Z,8.09
2019-05-30T01:02:02.775Z,7.84
2019-05-30T01:04:36.690Z,7.57
2019-05-30T01:07:08.969Z,7.33
2019-05-30T01:09:41.528Z,7.08
2019-05-30T01:12:14.220Z,8.74
2019-05-30T01:14:46.791Z,12.06
2019-05-30T01:17:19.473Z,12.23
2019-05-30T01:19:52.046Z,10.88
2019-05-30T01:22:24.725Z,9.90
2019-05-30T01:24:57.407Z,9.26
2019-05-30T01:27:30.444Z,8.71
2019-05-30T01:30:03.700Z,8.30
2019-05-30T01:32:36.569Z,7.88
2019-05-30T01:35:10.326Z,7.57
2019-05-30T01:37:42.961Z,7.26
2019-05-30T01:40:15.742Z,7.00
2019-05-30T01:42:49.540Z,8.54
2019-05-30T01:45:21.741Z,11.85
2019-05-30T01:47:54.545Z,12.00
2019-05-30T01:50:27.171Z,10.71
2019-05-30T01:53:00.397Z,9.74
2019-05-30T01:55:33.551Z,9.06
2019-05-30T01:58:07.125Z,8.54
2019-05-30T02:00:42.161Z,8.12
2019-05-30T02:03:14.975Z,7.76
2019-05-30T02:05:47.859Z,7.46
2019-05-30T02:08:21.150Z,7.14
2019-05-30T02:10:53.720Z,6.89
2019-05-30T02:13:26.405Z,6.63
2019-05-30T02:15:59.599Z,8.43
2019-05-30T02:18:32.882Z,11.75
2019-05-30T02:21:06.080Z,11.89
2019-05-30T02:23:38.760Z,10.55
2019-05-30T02:26:11.431Z,9.55
2019-05-30T02:28:44.110Z,8.84
2019-05-30T02:31:37.360Z,8.27
2019-05-30T02:33:51.023Z,7.87
2019-05-30T02:36:25.122Z,7.50
2019-05-30T02:38:58.104Z,7.16
2019-05-30T02:41:30.677Z,6.90
2019-05-30T02:44:05.299Z,6.63
2019-05-30T02:46:37.584Z,8.51
2019-05-30T02:49:11.864Z,11.77
2019-05-30T02:51:44.300Z,11.84
2019-05-30T02:54:16.954Z,10.49
2019-05-30T02:56:49.186Z,9.51
2019-05-30T02:59:21.890Z,8.78
2019-05-30T03:02:01.855Z,8.26
2019-05-30T03:04:29.409Z,7.85
2019-05-30T03:07:03.858Z,7.49
2019-05-30T03:09:36.305Z,7.16
2019-05-30T03:12:11.016Z,6.90
2019-05-30T03:14:43.211Z,6.65
2019-05-30T03:17:17.160Z,8.43
2019-05-30T03:19:49.529Z,11.81
2019-05-30T03:22:22.146Z,11.96
2019-05-30T03:24:54.879Z,10.66
2019-05-30T03:27:27.512Z,9.69
2019-05-30T03:30:00.093Z,9.06
2019-05-30T03:33:05.315Z,8.57
2019-05-30T03:35:18.614Z,8.22
2019-05-30T03:37:43.869Z,7.92
2019-05-30T03:40:18.504Z,7.70
2019-05-30T03:42:51.573Z,7.50
2019-05-30T03:45:28.194Z,7.32
2019-05-30T03:48:07.406Z,9.24
2019-05-30T03:50:44.966Z,12.68
2019-05-30T03:53:17.765Z,12.82
2019-05-30T03:55:54.152Z,11.58
2019-05-30T03:58:50.861Z,10.70
2019-05-30T04:01:36.757Z,10.05
2019-05-30T04:04:19.775Z,9.65
2019-05-30T04:06:57.139Z,9.34
2019-05-30T04:09:32.086Z,9.16
2019-05-30T04:12:10.600Z,8.98
2019-05-30T04:14:46.972Z,8.80
2019-05-30T04:17:20.012Z,8.69
2019-05-30T04:19:53.048Z,8.61
2019-05-30T04:22:25.725Z,8.51
2019-05-30T04:24:57.945Z,8.45
2019-05-30T04:27:30.571Z,8.45
2019-05-30T04:30:03.159Z,10.81
2019-05-30T04:32:35.833Z,13.96
2019-05-30T04:35:10.144Z,13.43
2019-05-30T04:37:42.822Z,12.45
2019-05-30T04:40:17.433Z,11.81
2019-05-30T04:42:50.127Z,11.43
2019-05-30T04:45:27.557Z,11.18
2019-05-30T04:47:57.950Z,10.98
2019-05-30T04:50:30.619Z,10.81
2019-05-30T04:53:03.309Z,10.73
2019-05-30T04:55:35.993Z,10.63
2019-05-30T04:58:08.710Z,10.56
2019-05-30T05:00:41.346Z,10.49
2019-05-30T05:03:15.494Z,10.42
2019-05-30T05:05:48.344Z,10.38
2019-05-30T05:08:21.969Z,10.35
2019-05-30T05:10:54.513Z,10.33
2019-05-30T05:13:27.498Z,10.33
2019-05-30T05:16:00.075Z,10.33
2019-05-30T05:18:52.872Z,10.29
2019-05-30T05:21:25.518Z,10.33
2019-05-30T05:23:58.202Z,10.36
2019-05-30T05:26:30.885Z,10.40
2019-05-30T05:29:03.479Z,10.46
2019-05-30T05:31:37.157Z,10.49
2019-05-30T05:34:09.742Z,10.55
2019-05-30T05:36:42.423Z,10.62
2019-05-30T05:39:16.148Z,10.70
2019-05-30T05:41:48.898Z,13.31
2019-05-30T05:44:22.365Z,14.46
2019-05-30T05:46:55.287Z,13.82
2019-05-30T05:49:28.872Z,13.41
2019-05-30T05:52:01.870Z,13.13
2019-05-30T05:54:34.553Z,12.98
2019-05-30T05:57:07.233Z,12.84
2019-05-30T05:59:39.802Z,12.79
2019-05-30T06:02:12.669Z,12.75
2019-05-30T06:04:45.465Z,12.75
2019-05-30T06:07:18.248Z,12.75
2019-05-30T06:09:50.938Z,12.79
2019-05-30T06:12:23.864Z,12.80
2019-05-30T06:14:56.336Z,12.84
2019-05-30T06:17:29.311Z,12.84
2019-05-30T06:20:02.266Z,12.87
2019-05-30T06:22:35.450Z,12.95
2019-05-30T06:25:09.096Z,12.98
2019-05-30T06:27:42.049Z,13.03
2019-05-30T06:30:16.362Z,13.10
2019-05-30T06:32:49.341Z,13.16
2019-05-30T06:35:23.019Z,13.25
2019-05-30T06:37:55.937Z,13.31
2019-05-30T06:40:30.878Z,13.41
2019-05-30T06:43:03.037Z,13.52
2019-05-30T06:45:35.712Z,13.60
2019-05-30T06:48:08.381Z,13.70
2019-05-30T06:50:40.972Z,13.79
2019-05-30T06:53:14.665Z,13.89
2019-05-30T06:55:47.352Z,13.98
2019-05-30T06:58:35.318Z,14.11
2019-05-30T07:00:54.239Z,14.24
2019-05-30T07:03:28.341Z,14.31
2019-05-30T07:06:01.506Z,14.39
2019-05-30T07:08:34.845Z,14.40
2019-05-30T07:11:07.523Z,14.49
2019-05-30T07:13:40.204Z,14.55
2019-05-30T07:16:12.882Z,14.62
2019-05-30T07:18:45.559Z,14.73
2019-05-30T07:21:18.243Z,14.83
2019-05-30T07:23:50.924Z,14.92
2019-05-30T07:26:23.908Z,15.05
2019-05-30T07:28:56.709Z,15.12
2019-05-30T07:31:30.206Z,15.23
2019-05-30T07:34:03.161Z,15.33
2019-05-30T07:36:35.736Z,15.43
2019-05-30T07:39:11.286Z,15.57
2019-05-30T07:41:43.972Z,15.68
2019-05-30T07:44:16.651Z,15.77
2019-05-30T07:46:48.866Z,15.85
2019-05-30T07:49:21.594Z,15.93
2019-05-30T07:51:53.832Z,16.06
2019-05-30T07:54:26.860Z,16.15
2019-05-30T07:56:59.526Z,16.26
2019-05-30T07:59:34.292Z,16.36
2019-05-30T08:02:07.566Z,16.45
2019-05-30T08:04:41.130Z,16.51
2019-05-30T08:07:13.734Z,16.61
2019-05-30T08:09:45.986Z,16.68
2019-05-30T08:12:18.418Z,16.72
2019-05-30T08:14:51.054Z,16.78
2019-05-30T08:17:23.621Z,16.83
2019-05-30T08:19:55.868Z,16.92
2019-05-30T08:22:29.848Z,16.95
2019-05-30T08:25:02.898Z,17.03
2019-05-30T08:27:36.445Z,17.09
2019-05-30T08:30:13.682Z,17.17
2019-05-30T08:32:47.888Z,17.21
2019-05-30T08:35:20.567Z,17.27
2019-05-30T08:37:53.155Z,17.32
2019-05-30T08:40:25.832Z,17.38
2019-05-30T08:42:59.221Z,17.42
2019-05-30T08:45:31.899Z,17.49
2019-05-30T08:48:04.883Z,17.50
2019-05-30T08:50:41.290Z,17.58
2019-05-30T08:53:11.886Z,17.58
2019-05-30T08:55:45.185Z,17.65
2019-05-30T08:58:17.749Z,17.68
2019-05-30T09:00:50.836Z,17.72
2019-05-30T09:03:24.761Z,17.77
2019-05-30T09:06:03.818Z,17.79
2019-05-30T09:08:31.846Z,17.84
2019-05-30T09:11:04.677Z,17.89
2019-05-30T09:13:38.859Z,17.89
2019-05-30T09:16:11.936Z,17.93
2019-05-30T09:18:45.269Z,17.96
2019-05-30T09:21:18.072Z,18.01
2019-05-30T09:23:50.992Z,18.12
2019-05-30T09:26:23.684Z,18.21
2019-05-30T09:28:56.776Z,18.28
2019-05-30T09:31:29.511Z,18.35
2019-05-30T09:34:02.132Z,18.35
2019-05-30T09:36:34.816Z,18.41
2019-05-30T09:39:09.706Z,18.42
2019-05-30T09:41:43.736Z,18.50
2019-05-30T09:44:16.529Z,18.60
2019-05-30T09:46:50.416Z,18.66
2019-05-30T09:49:23.025Z,18.77
2019-05-30T09:51:55.698Z,18.87
2019-05-30T09:54:27.914Z,18.95
2019-05-30T09:57:00.645Z,19.05
2019-05-30T09:59:33.213Z,19.10
2019-05-30T10:02:06.009Z,19.18
2019-05-30T10:04:38.788Z,19.25
2019-05-30T10:07:11.468Z,19.37
2019-05-30T10:09:45.622Z,19.43
2019-05-30T10:12:18.770Z,19.50
2019-05-30T10:14:52.836Z,19.58
2019-05-30T10:17:25.785Z,19.69
2019-05-30T10:19:58.433Z,19.78
2019-05-30T10:22:31.023Z,19.85
2019-05-30T10:25:03.702Z,19.95
2019-05-30T10:27:36.439Z,20.05
2019-05-30T10:30:12.109Z,20.12
2019-05-30T10:32:45.413Z,20.12
2019-05-30T10:35:19.440Z,20.13
2019-05-30T10:37:52.842Z,20.10
2019-05-30T10:40:25.708Z,20.10
2019-05-30T10:42:59.206Z,20.15
2019-05-30T10:45:32.029Z,20.24
2019-05-30T10:48:04.687Z,20.36
2019-05-30T10:50:37.653Z,20.47
2019-05-30T10:53:10.335Z,20.58
2019-05-30T10:55:42.954Z,20.65
2019-05-30T10:58:15.585Z,20.74
2019-05-30T11:00:53.421Z,20.76
2019-05-30T11:03:28.944Z,20.85
2019-05-30T11:06:17.983Z,20.89
2019-05-30T11:08:52.854Z,20.96
2019-05-30T11:11:25.924Z,21.06
2019-05-30T11:13:58.798Z,21.15
2019-05-30T11:16:32.497Z,21.25
2019-05-30T11:21:39.086Z,21.38
2019-05-30T11:24:13.127Z,21.45
2019-05-30T11:26:45.787Z,21.54
2019-05-30T11:29:18.481Z,21.65
2019-05-30T11:31:53.389Z,21.66
2019-05-30T11:34:26.179Z,21.68
2019-05-30T11:36:59.331Z,21.72
2019-05-30T11:39:33.077Z,21.74
2019-05-30T11:42:05.863Z,21.77
2019-05-30T11:44:38.535Z,21.86
2019-05-30T11:47:11.201Z,21.94
2019-05-30T11:49:46.845Z,22.00
2019-05-30T11:52:19.529Z,22.01
2019-05-30T11:54:52.093Z,22.04
2019-05-30T11:57:24.903Z,22.10
2019-05-30T11:59:58.336Z,22.15
2019-05-30T12:02:31.486Z,22.25
2019-05-30T12:05:04.371Z,22.39
2019-05-30T12:07:37.179Z,22.56
2019-05-30T12:10:10.842Z,22.70
2019-05-30T12:12:43.535Z,22.84
2019-05-30T12:15:16.106Z,23.06
2019-05-30T12:17:48.996Z,23.33
2019-05-30T12:20:21.230Z,23.63
2019-05-30T12:22:53.807Z,23.95
2019-05-30T12:25:26.215Z,24.33
2019-05-30T12:28:00.082Z,24.61
2019-05-30T12:30:32.903Z,24.98
2019-05-30T12:33:05.620Z,25.33
2019-05-30T12:35:38.254Z,25.61
2019-05-30T12:38:10.946Z,25.79
2019-05-30T12:40:43.621Z,25.90
2019-05-30T12:43:16.300Z,25.97
2019-05-30T12:45:49.698Z,26.04
2019-05-30T12:48:22.366Z,26.20
2019-05-30T12:50:55.251Z,26.35
2019-05-30T12:53:28.144Z,26.55
2019-05-30T12:56:00.821Z,26.76
2019-05-30T12:58:33.072Z,26.94
2019-05-30T13:01:06.847Z,27.13
2019-05-30T13:03:39.975Z,27.27
2019-05-30T13:06:12.207Z,27.32
2019-05-30T13:08:45.142Z,27.41
2019-05-30T13:11:17.833Z,27.52
2019-05-30T13:13:50.486Z,27.77
2019-05-30T13:16:23.064Z,28.05
2019-05-30T13:18:55.950Z,28.31
2019-05-30T13:21:28.845Z,28.56
2019-05-30T13:24:02.116Z,28.74
2019-05-30T13:26:34.918Z,28.80
2019-05-30T13:29:07.837Z,28.77
2019-05-30T13:31:40.473Z,28.76
2019-05-30T13:34:13.160Z,28.77
2019-05-30T13:36:45.850Z,28.81
2019-05-30T13:39:18.620Z,28.83
2019-05-30T13:41:51.404Z,28.91
2019-05-30T13:44:24.172Z,28.98
2019-05-30T13:46:56.908Z,29.18
2019-05-30T13:49:30.874Z,29.44
2019-05-30T13:52:05.023Z,29.70
2019-05-30T13:54:37.978Z,29.84
2019-05-30T13:57:10.653Z,30.03
2019-05-30T13:59:43.331Z,30.15
2019-05-30T14:02:15.908Z,30.36
2019-05-30T14:04:48.583Z,30.64
2019-05-30T14:07:21.175Z,30.92
2019-05-30T14:09:53.843Z,31.20
2019-05-30T14:12:27.742Z,31.52
2019-05-30T14:15:01.139Z,31.72
2019-05-30T14:17:35.969Z,31.78
2019-05-30T14:20:11.259Z,31.73
2019-05-30T14:22:44.407Z,31.68
2019-05-30T14:25:17.711Z,31.64
2019-05-30T14:27:51.721Z,31.64
2019-05-30T14:30:25.617Z,31.73
2019-05-30T14:32:58.295Z,31.88
2019-05-30T14:35:31.274Z,31.97
2019-05-30T14:38:04.690Z,31.97
2019-05-30T14:40:37.771Z,32.00
2019-05-30T14:43:11.414Z,31.97
2019-05-30T14:45:44.360Z,31.89
2019-05-30T14:48:16.978Z,31.86
2019-05-30T14:50:49.725Z,31.86
2019-05-30T14:53:21.946Z,31.95
2019-05-30T14:55:54.399Z,32.06
2019-05-30T14:58:27.037Z,32.26
2019-05-30T15:00:59.301Z,32.37
2019-05-30T15:03:32.499Z,32.46
2019-05-30T15:06:06.879Z,32.61
2019-05-30T15:08:39.496Z,32.85
2019-05-30T15:11:12.166Z,33.02
2019-05-30T15:13:44.743Z,33.03
2019-05-30T15:16:17.225Z,33.10
2019-05-30T15:18:50.315Z,33.20
2019-05-30T15:21:22.996Z,33.34
2019-05-30T15:23:55.672Z,33.59
2019-05-30T15:26:28.342Z,33.83
2019-05-30T15:29:00.933Z,33.97
2019-05-30T15:31:33.598Z,34.07
2019-05-30T15:34:06.595Z,34.17
2019-05-30T15:36:39.267Z,34.24
2019-05-30T15:39:11.497Z,34.34
2019-05-30T15:41:44.115Z,34.48
2019-05-30T15:44:17.731Z,34.67
2019-05-30T15:46:50.267Z,34.85
2019-05-30T15:49:22.876Z,34.80
2019-05-30T15:51:55.543Z,34.66
2019-05-30T15:54:27.771Z,34.53
2019-05-30T15:57:00.404Z,34.44
2019-05-30T15:59:33.084Z,34.28
2019-05-30T16:02:05.765Z,34.20
2019-05-30T16:04:38.430Z,34.24
2019-05-30T16:07:11.105Z,34.41
2019-05-30T16:09:46.998Z,34.61
2019-05-30T16:12:19.382Z,34.76
2019-05-30T16:14:52.440Z,34.73
2019-05-30T16:17:25.318Z,34.52
2019-05-30T16:19:57.900Z,34.28
2019-05-30T16:22:30.630Z,34.03
2019-05-30T16:25:03.295Z,33.80
2019-05-30T16:27:37.160Z,33.65
2019-05-30T16:30:12.077Z,33.63
2019-05-30T16:32:45.126Z,33.62
2019-05-30T16:35:18.277Z,33.73
2019-05-30T16:37:51.041Z,33.83
2019-05-30T16:40:23.257Z,33.89
2019-05-30T16:42:55.897Z,33.86
2019-05-30T16:45:28.564Z,33.81
2019-05-30T16:48:01.250Z,33.73
2019-05-30T16:50:33.836Z,33.72
2019-05-30T16:53:06.628Z,33.66
2019-05-30T16:55:39.282Z,33.55
2019-05-30T16:58:12.065Z,33.38
2019-05-30T17:00:44.340Z,33.25
2019-05-30T17:03:17.772Z,33.14
2019-05-30T17:05:52.396Z,32.99
2019-05-30T17:08:24.943Z,32.87
2019-05-30T17:10:58.024Z,32.82
2019-05-30T17:13:31.388Z,32.79
2019-05-30T17:16:04.197Z,32.76
2019-05-30T17:18:36.981Z,32.68
2019-05-30T17:21:09.671Z,32.51
2019-05-30T17:23:42.351Z,32.38
2019-05-30T17:26:15.033Z,32.24
2019-05-30T17:28:47.924Z,32.13
2019-05-30T17:31:21.622Z,31.75
2019-05-30T17:33:54.502Z,31.06
2019-05-30T17:36:28.169Z,30.33
2019-05-30T17:39:00.639Z,29.72
2019-05-30T17:41:34.789Z,29.22
2019-05-30T17:44:07.461Z,28.57
2019-05-30T17:46:40.247Z,27.84
2019-05-30T17:49:12.921Z,27.15
2019-05-30T17:51:45.509Z,26.49
2019-05-30T17:54:17.772Z,25.97
2019-05-30T17:56:50.444Z,25.48
2019-05-30T17:59:22.710Z,24.91
2019-05-30T18:01:55.301Z,24.40
2019-05-30T18:04:28.609Z,23.92
2019-05-30T18:07:01.469Z,23.43
2019-05-30T18:09:34.159Z,22.97
2019-05-30T18:12:07.033Z,22.55
2019-05-30T18:14:39.709Z,22.17
2019-05-30T18:17:12.289Z,21.74
2019-05-30T18:19:44.983Z,21.38
2019-05-30T18:22:17.192Z,21.03
2019-05-30T18:24:49.821Z,20.68
2019-05-30T18:27:23.811Z,20.36
2019-05-30T18:29:56.161Z,20.05
2019-05-30T18:32:28.783Z,19.75
2019-05-30T18:35:01.564Z,19.49
2019-05-30T18:37:34.556Z,19.19
2019-05-30T18:40:09.382Z,18.94
2019-05-30T18:42:42.571Z,18.66
2019-05-30T18:45:18.732Z,18.43
2019-05-30T18:47:51.617Z,18.17
2019-05-30T18:50:25.188Z,17.94
2019-05-30T18:52:58.000Z,17.72
2019-05-30T18:55:30.753Z,17.48
2019-05-30T18:58:03.350Z,17.27
2019-05-30T19:00:36.025Z,17.02
2019-05-30T19:03:08.548Z,16.80
2019-05-30T19:05:41.190Z,16.59
2019-05-30T19:08:13.756Z,16.37
2019-05-30T19:10:46.433Z,16.17
2019-05-30T19:13:19.015Z,15.97
2019-05-30T19:15:51.481Z,15.77
2019-05-30T19:18:25.270Z,15.60
2019-05-30T19:20:58.190Z,15.42
2019-05-30T19:23:32.042Z,15.23
2019-05-30T19:26:04.575Z,15.05
2019-05-30T19:28:37.238Z,14.87
2019-05-30T19:31:09.921Z,14.69
2019-05-30T19:33:42.613Z,14.52
2019-05-30T19:36:15.281Z,14.35
2019-05-30T19:38:47.959Z,14.18
2019-05-30T19:41:21.979Z,14.05
2019-05-30T19:43:54.647Z,13.90
2019-05-30T19:46:28.074Z,13.82
2019-05-30T19:49:00.722Z,13.68
2019-05-30T19:51:33.403Z,13.56
2019-05-30T19:54:06.083Z,13.43
2019-05-30T19:56:41.661Z,13.33
2019-05-30T19:59:13.292Z,13.23
2019-05-30T20:01:45.967Z,13.13
2019-05-30T20:04:18.744Z,13.03
2019-05-30T20:06:51.425Z,12.98
2019-05-30T20:09:24.214Z,12.87
2019-05-30T20:12:03.231Z,12.82
2019-05-30T20:14:31.105Z,12.75
2019-05-30T20:17:03.790Z,12.72
2019-05-30T20:19:37.689Z,12.64
2019-05-30T20:22:10.473Z,12.59
2019-05-30T20:24:43.042Z,12.51
2019-05-30T20:27:15.423Z,12.44
2019-05-30T20:29:47.998Z,12.40
2019-05-30T20:32:20.783Z,12.36
2019-05-30T20:34:53.463Z,12.34
2019-05-30T20:37:26.141Z,12.29
2019-05-30T20:39:59.945Z,12.26
2019-05-30T20:42:32.616Z,12.22
2019-05-30T20:45:09.874Z,12.20
2019-05-30T20:47:43.089Z,12.16
2019-05-30T20:50:17.311Z,12.16
2019-05-30T20:52:50.202Z,12.15
2019-05-30T20:55:23.073Z,12.15
2019-05-30T20:57:55.756Z,12.10
2019-05-30T21:00:42.240Z,12.09
2019-05-30T21:03:15.153Z,12.03
2019-05-30T21:05:49.362Z,11.99
2019-05-30T21:08:23.276Z,11.95
2019-05-30T21:10:58.683Z,11.92
2019-05-30T21:13:36.223Z,11.85
2019-05-30T21:16:09.812Z,11.80
2019-05-30T21:18:46.190Z,11.74
2019-05-30T21:21:19.987Z,13.70
2019-05-30T21:23:52.661Z,16.89
2019-05-30T21:26:25.345Z,17.00
2019-05-30T21:28:58.948Z,15.81
2019-05-30T21:31:31.162Z,15.01
2019-05-30T21:34:04.155Z,14.48
2019-05-30T21:36:37.690Z,14.14
2019-05-30T21:39:11.493Z,13.83
2019-05-30T21:41:44.554Z,13.63
2019-05-30T21:44:17.373Z,13.42
2019-05-30T21:46:49.941Z,13.23
2019-05-30T21:49:22.622Z,13.09
2019-05-30T21:51:55.502Z,12.90
2019-05-30T21:54:28.187Z,12.74
2019-05-30T21:57:01.781Z,12.65
2019-05-30T21:59:34.472Z,12.55
2019-05-30T22:02:07.970Z,12.48
2019-05-30T22:04:40.498Z,12.44
2019-05-30T22:07:13.730Z,12.37
2019-05-30T22:09:45.978Z,12.31
2019-05-30T22:12:18.573Z,12.26
2019-05-30T22:14:52.393Z,12.22
2019-05-30T22:17:24.850Z,12.16
2019-05-30T22:19:57.544Z,12.12
2019-05-30T22:22:31.350Z,12.06
2019-05-30T22:25:04.130Z,12.06
2019-05-30T22:27:36.706Z,12.03
2019-05-30T22:30:09.680Z,11.96
2019-05-30T22:32:42.585Z,11.93
2019-05-30T22:35:15.552Z,11.93
2019-05-30T22:37:48.892Z,11.92
2019-05-30T22:40:21.843Z,11.89
2019-05-30T22:42:54.718Z,11.88
2019-05-30T22:45:27.707Z,11.85
2019-05-30T22:48:00.585Z,11.84
2019-05-30T22:50:33.382Z,11.81
2019-05-30T22:53:06.353Z,11.80
2019-05-30T22:55:39.357Z,11.75
2019-05-30T22:58:12.030Z,11.72
2019-05-30T23:00:45.947Z,11.68
2019-05-30T23:03:18.739Z,13.77
2019-05-30T23:05:51.636Z,16.55
2019-05-30T23:08:24.583Z,15.89
2019-05-30T23:10:57.567Z,15.02
2019-05-30T23:13:40.209Z,14.37
2019-05-30T23:16:05.129Z,14.00
2019-05-30T23:18:38.072Z,13.68
2019-05-30T23:21:11.059Z,13.43
2019-05-30T23:23:43.820Z,13.21
2019-05-30T23:26:16.732Z,13.03
2019-05-30T23:28:49.708Z,12.83
2019-05-30T23:31:22.687Z,12.69
2019-05-30T23:33:56.470Z,12.54
2019-05-30T23:36:28.954Z,12.41
2019-05-30T23:39:01.574Z,12.29
2019-05-30T23:41:35.871Z,12.15
2019-05-30T23:44:11.667Z,12.03
2019-05-30T23:46:42.349Z,11.92
2019-05-30T23:49:15.028Z,11.84
2019-05-30T23:51:47.706Z,11.74
2019-05-30T23:54:20.392Z,11.65
2019-05-30T23:56:54.596Z,14.02
2019-05-30T23:59:27.482Z,17.09
